Terminal Aerodrome Forecast
Issued by NWS

Home | Current Version | Previous Version | Text Only | Print | Product List | Glossary On
Versions: 1 2 3 4 5 6 7 8 9 10 11 12 13 14 15 16 17
000
FTUS41 KCAR 272326
TAFPQI
TAF
KPQI 272326Z 2800/2824 34006KT P6SM SCT040
     FM280800 34006KT P6SM BKN035
     FM281200 34008KT P6SM BKN025
     FM281800 34008KT P6SM BKN035
      AMD LTD TO CLD VIS AND WIND=

USA.gov is the U.S. government's official web portal to all federal, state and local government web resources and services.